createdAt,value
2022-08-14T00:02:01.555Z,5.15
2022-08-14T00:05:07.875Z,5.53
2022-08-14T00:08:14.524Z,5.55
2022-08-14T00:11:17.157Z,6.15
2022-08-14T00:14:19.329Z,4.95
2022-08-14T00:17:22.183Z,5.97
2022-08-14T00:20:30.189Z,5.57
2022-08-14T00:23:33.457Z,5.18
2022-08-14T00:26:35.667Z,5.60
2022-08-14T00:29:40.582Z,5.30
2022-08-14T00:32:52.194Z,5.53
2022-08-14T00:36:34.960Z,5.45
2022-08-14T00:39:20.758Z,4.50
2022-08-14T00:42:55.034Z,5.27
2022-08-14T00:45:52.552Z,5.83
2022-08-14T00:48:55.308Z,5.15
2022-08-14T00:52:00.467Z,5.37
2022-08-14T00:55:06.609Z,5.43
2022-08-14T00:58:32.795Z,5.30
2022-08-14T01:01:37.066Z,6.15
2022-08-14T01:04:53.698Z,6.03
2022-08-14T01:07:59.739Z,5.47
2022-08-14T01:11:03.107Z,5.82
2022-08-14T01:14:27.533Z,5.35
2022-08-14T01:17:50.018Z,5.93
2022-08-14T01:21:06.358Z,5.18
2022-08-14T01:24:10.958Z,5.28
2022-08-14T01:27:22.393Z,5.70
2022-08-14T01:30:27.582Z,5.60
2022-08-14T01:36:54.084Z,5.57
2022-08-14T01:39:56.469Z,6.12
2022-08-14T01:42:58.693Z,5.10
2022-08-14T01:46:06.865Z,5.40
2022-08-14T01:49:13.202Z,5.43
2022-08-14T01:52:33.705Z,5.97
2022-08-14T01:55:38.562Z,5.37
2022-08-14T01:58:46.612Z,6.62
2022-08-14T02:02:10.117Z,5.45
2022-08-14T02:05:35.579Z,6.15
2022-08-14T02:08:52.476Z,5.85
2022-08-14T02:11:56.352Z,6.53
2022-08-14T02:15:01.581Z,6.43
2022-08-14T02:18:04.445Z,6.75
2022-08-14T02:21:06.699Z,5.45
2022-08-14T02:24:39.263Z,5.45
2022-08-14T02:28:25.152Z,5.75
2022-08-14T02:30:54.783Z,5.53
2022-08-14T02:33:56.905Z,6.37
2022-08-14T02:37:09.239Z,5.32
2022-08-14T02:40:14.169Z,5.80
2022-08-14T02:43:17.402Z,6.18
2022-08-14T02:46:27.106Z,5.87
2022-08-14T02:49:35.841Z,5.68
2022-08-14T02:53:07.399Z,5.60
2022-08-14T02:56:29.532Z,4.93
2022-08-14T02:59:28.835Z,5.50
2022-08-14T03:02:49.009Z,6.37
2022-08-14T03:05:58.196Z,6.25
2022-08-14T03:09:01.201Z,6.15
2022-08-14T03:12:04.919Z,6.70
2022-08-14T03:15:14.393Z,6.47
2022-08-14T03:18:22.143Z,5.22
2022-08-14T03:21:37.120Z,5.90
2022-08-14T03:24:39.308Z,5.68
2022-08-14T03:27:48.596Z,5.87
2022-08-14T03:31:01.652Z,7.28
2022-08-14T03:34:04.636Z,5.28
2022-08-14T03:37:37.510Z,6.40
2022-08-14T03:40:35.284Z,5.72
2022-08-14T03:43:37.442Z,6.40
2022-08-14T03:46:54.341Z,5.53
2022-08-14T03:49:58.319Z,6.30
2022-08-14T03:53:02.524Z,5.95
2022-08-14T03:56:06.223Z,6.40
2022-08-14T03:59:17.893Z,6.00
2022-08-14T04:02:32.416Z,5.35
2022-08-14T04:05:43.380Z,5.90
2022-08-14T04:08:51.693Z,6.87
2022-08-14T04:11:56.039Z,6.43
2022-08-14T04:14:58.492Z,5.90
2022-08-14T04:18:08.493Z,6.55
2022-08-14T04:21:16.151Z,6.53
2022-08-14T04:24:18.912Z,5.72
2022-08-14T04:27:23.205Z,6.70
2022-08-14T04:30:33.216Z,4.72
2022-08-14T04:33:36.369Z,6.95
2022-08-14T04:40:20.055Z,5.07
2022-08-14T04:43:39.822Z,6.40
2022-08-14T04:47:02.015Z,6.03
2022-08-14T04:50:05.549Z,5.90
2022-08-14T04:56:30.974Z,5.25
2022-08-14T04:59:37.105Z,4.82
2022-08-14T05:02:45.846Z,4.72
2022-08-14T05:05:54.513Z,6.10
2022-08-14T05:09:00.366Z,7.95
2022-08-14T05:13:11.003Z,5.50
2022-08-14T05:15:29.445Z,5.97
2022-08-14T05:19:17.972Z,6.47
2022-08-14T05:22:16.855Z,6.32
2022-08-14T05:25:21.265Z,5.25
2022-08-14T05:28:27.120Z,5.70
2022-08-14T05:31:39.379Z,6.95
2022-08-14T05:34:45.757Z,5.97
2022-08-14T05:37:49.367Z,5.20
2022-08-14T05:40:51.999Z,6.00
2022-08-14T05:43:55.082Z,5.40
2022-08-14T05:46:58.584Z,4.93
2022-08-14T05:50:01.787Z,5.87
2022-08-14T05:53:04.292Z,5.60
2022-08-14T05:56:06.701Z,5.78
2022-08-14T05:59:11.092Z,5.62
2022-08-14T06:02:13.228Z,4.37
2022-08-14T06:05:16.873Z,4.90
2022-08-14T06:08:36.101Z,4.95
2022-08-14T06:11:43.451Z,5.15
2022-08-14T06:14:45.576Z,4.57
2022-08-14T06:17:55.869Z,4.90
2022-08-14T06:21:06.205Z,5.75
2022-08-14T06:24:18.078Z,5.20
2022-08-14T06:27:21.247Z,6.18
2022-08-14T06:30:30.492Z,4.62
2022-08-14T06:35:10.329Z,5.20
2022-08-14T06:37:11.544Z,4.20
2022-08-14T06:40:28.014Z,4.78
2022-08-14T06:43:32.509Z,5.68
2022-08-14T06:46:37.222Z,4.93
2022-08-14T06:49:45.001Z,4.25
2022-08-14T06:52:50.854Z,4.25
2022-08-14T06:56:00.526Z,4.47
2022-08-14T06:59:05.242Z,4.07
2022-08-14T07:02:28.949Z,4.95
2022-08-14T07:05:55.497Z,5.72
2022-08-14T07:08:58.631Z,4.97
2022-08-14T07:12:01.045Z,4.87
2022-08-14T07:15:06.222Z,3.80
2022-08-14T07:18:09.750Z,4.95
2022-08-14T07:21:12.236Z,4.47
2022-08-14T07:24:26.160Z,4.95
2022-08-14T07:27:36.125Z,4.62
2022-08-14T07:30:51.097Z,4.22
2022-08-14T07:33:54.467Z,5.13
2022-08-14T07:37:00.641Z,5.00
2022-08-14T07:40:05.147Z,5.53
2022-08-14T07:43:14.412Z,4.55
2022-08-14T07:46:21.200Z,4.97
2022-08-14T07:52:34.242Z,4.95
2022-08-14T07:58:51.372Z,5.37
2022-08-14T08:05:02.565Z,5.47
2022-08-14T08:08:08.306Z,4.75
2022-08-14T08:11:34.583Z,5.05
2022-08-14T08:14:56.493Z,4.72
2022-08-14T08:18:05.006Z,4.82
2022-08-14T08:21:08.249Z,4.10
2022-08-14T08:24:11.184Z,4.97
2022-08-14T08:27:19.856Z,5.93
2022-08-14T08:30:24.460Z,5.20
2022-08-14T08:33:31.759Z,4.55
2022-08-14T08:36:42.749Z,5.47
2022-08-14T08:40:01.913Z,5.62
2022-08-14T08:43:18.346Z,5.25
2022-08-14T08:46:24.068Z,5.55
2022-08-14T08:49:48.187Z,4.80
2022-08-14T08:52:55.524Z,5.20
2022-08-14T08:59:00.915Z,4.62
2022-08-14T09:02:10.425Z,5.47
2022-08-14T09:05:12.839Z,4.72
2022-08-14T09:08:31.781Z,7.53
2022-08-14T09:11:35.045Z,4.47
2022-08-14T09:14:39.992Z,5.50
2022-08-14T09:17:43.156Z,5.30
2022-08-14T09:20:49.409Z,5.32
2022-08-14T09:24:29.165Z,4.50
2022-08-14T09:27:22.602Z,6.18
2022-08-14T09:30:33.020Z,5.50
2022-08-14T09:33:57.768Z,4.97
2022-08-14T09:37:11.740Z,4.30
2022-08-14T09:40:26.446Z,4.75
2022-08-14T09:43:55.127Z,4.43
2022-08-14T09:46:59.842Z,4.55
2022-08-14T09:50:01.976Z,6.20
2022-08-14T09:53:17.807Z,4.97
2022-08-14T09:56:30.154Z,4.65
2022-08-14T09:59:42.009Z,4.05
2022-08-14T10:03:05.251Z,4.80
2022-08-14T10:06:14.445Z,4.75
2022-08-14T10:09:17.686Z,5.32
2022-08-14T10:12:28.997Z,4.47
2022-08-14T10:15:46.386Z,4.65
2022-08-14T10:18:53.298Z,4.18
2022-08-14T10:23:14.917Z,4.55
2022-08-14T10:25:40.342Z,4.50
2022-08-14T10:29:19.050Z,4.18
2022-08-14T10:32:17.945Z,4.25
2022-08-14T10:35:22.982Z,4.78
2022-08-14T10:38:27.778Z,3.67
2022-08-14T10:41:48.529Z,4.10
2022-08-14T10:44:56.568Z,4.15
2022-08-14T10:48:08.561Z,4.30
2022-08-14T10:51:16.716Z,3.20
2022-08-14T10:54:35.754Z,3.75
2022-08-14T10:57:52.498Z,4.47
2022-08-14T11:00:59.195Z,4.28
2022-08-14T11:04:02.578Z,4.45
2022-08-14T11:07:16.812Z,4.43
2022-08-14T11:10:27.896Z,4.60
2022-08-14T11:13:31.444Z,3.78
2022-08-14T11:16:35.943Z,3.95
2022-08-14T11:19:40.626Z,4.18
2022-08-14T11:22:55.964Z,3.92
2022-08-14T11:26:01.579Z,4.10
2022-08-14T11:29:06.297Z,4.75
2022-08-14T11:32:10.836Z,4.07
2022-08-14T11:35:16.275Z,4.50
2022-08-14T11:38:19.996Z,4.10
2022-08-14T11:41:22.666Z,4.15
2022-08-14T11:44:45.805Z,3.62
2022-08-14T11:48:13.358Z,3.75
2022-08-14T11:51:30.349Z,3.45
2022-08-14T11:54:35.485Z,3.80
2022-08-14T11:57:38.138Z,4.87
2022-08-14T12:00:53.760Z,4.32
2022-08-14T12:04:21.866Z,4.05
2022-08-14T12:07:30.474Z,3.75
2022-08-14T12:10:40.960Z,4.18
2022-08-14T12:13:45.967Z,4.35
2022-08-14T12:17:12.846Z,4.07
2022-08-14T12:20:15.733Z,3.80
2022-08-14T12:23:32.807Z,4.28
2022-08-14T12:26:40.618Z,3.58
2022-08-14T12:29:53.946Z,3.90
2022-08-14T12:32:58.897Z,4.15
2022-08-14T12:36:05.720Z,4.40
2022-08-14T12:39:20.315Z,3.72
2022-08-14T12:42:34.876Z,4.82
2022-08-14T12:45:40.260Z,3.70
2022-08-14T12:48:46.376Z,4.10
2022-08-14T12:51:58.383Z,3.28
2022-08-14T12:55:06.415Z,3.70
2022-08-14T12:58:28.651Z,3.85
2022-08-14T13:01:59.875Z,4.68
2022-08-14T13:04:58.088Z,4.03
2022-08-14T13:08:05.038Z,4.95
2022-08-14T13:11:14.568Z,4.40
2022-08-14T13:14:30.059Z,3.80
2022-08-14T13:17:41.913Z,4.12
2022-08-14T13:20:51.507Z,4.35
2022-08-14T13:24:03.140Z,4.00
2022-08-14T13:27:12.363Z,4.95
2022-08-14T13:30:23.413Z,4.50
2022-08-14T13:33:27.303Z,4.40
2022-08-14T13:36:54.737Z,5.03
2022-08-14T13:39:57.090Z,4.87
2022-08-14T13:42:59.896Z,4.68
2022-08-14T13:46:03.902Z,4.40
2022-08-14T13:52:51.423Z,4.45
2022-08-14T13:55:52.090Z,4.87
2022-08-14T13:59:01.296Z,4.47
2022-08-14T14:02:06.339Z,4.70
2022-08-14T14:05:14.699Z,4.47
2022-08-14T14:08:43.707Z,4.55
2022-08-14T14:11:43.886Z,4.07
2022-08-14T14:14:51.783Z,4.57
2022-08-14T14:17:59.544Z,4.43
2022-08-14T14:21:02.499Z,4.28
2022-08-14T14:24:06.096Z,4.97
2022-08-14T14:27:38.928Z,5.68
2022-08-14T14:34:12.708Z,4.40
2022-08-14T14:37:26.748Z,4.70
2022-08-14T14:40:52.556Z,4.22
2022-08-14T14:43:58.910Z,3.80
2022-08-14T14:47:01.928Z,4.53
2022-08-14T14:50:04.998Z,4.45
2022-08-14T14:56:50.244Z,5.12
2022-08-14T14:59:38.881Z,4.07
2022-08-14T15:08:56.864Z,4.87
2022-08-14T15:12:16.110Z,4.70
2022-08-14T15:18:40.224Z,4.35
2022-08-14T15:21:49.348Z,4.03
2022-08-14T15:24:52.904Z,4.40
2022-08-14T15:27:55.495Z,4.20
2022-08-14T15:30:58.876Z,4.70
2022-08-14T15:34:43.100Z,3.87
2022-08-14T15:37:35.283Z,4.12
2022-08-14T15:40:51.471Z,3.90
2022-08-14T15:43:59.965Z,3.37
2022-08-14T15:47:07.006Z,4.05
2022-08-14T15:50:09.746Z,4.00
2022-08-14T15:53:12.389Z,4.03
2022-08-14T15:56:32.854Z,3.75
2022-08-14T15:59:58.386Z,4.25
2022-08-14T16:03:01.664Z,4.18
2022-08-14T16:06:06.193Z,4.37
2022-08-14T16:09:13.418Z,4.20
2022-08-14T16:12:16.688Z,3.45
2022-08-14T16:15:22.408Z,4.53
2022-08-14T16:18:27.242Z,4.20
2022-08-14T16:24:59.920Z,3.97
2022-08-14T16:27:59.731Z,4.30
2022-08-14T16:31:03.018Z,3.85
2022-08-14T16:34:45.432Z,3.40
2022-08-14T16:37:30.915Z,4.80
2022-08-14T16:40:42.957Z,4.90
2022-08-14T16:43:47.158Z,3.87
2022-08-14T16:46:57.134Z,3.87
2022-08-14T16:50:04.714Z,3.83
2022-08-14T16:53:09.614Z,3.90
2022-08-14T16:56:17.169Z,4.25
2022-08-14T16:59:30.657Z,3.78
2022-08-14T17:03:00.909Z,4.20
2022-08-14T17:06:03.094Z,3.72
2022-08-14T17:09:31.473Z,4.57
2022-08-14T17:12:35.371Z,4.35
2022-08-14T17:15:37.888Z,4.12
2022-08-14T17:19:00.114Z,3.47
2022-08-14T17:22:04.015Z,3.87
2022-08-14T17:25:07.009Z,3.83
2022-08-14T17:28:49.819Z,3.58
2022-08-14T17:31:57.816Z,4.65
2022-08-14T17:35:01.777Z,3.97
2022-08-14T17:38:10.126Z,3.65
2022-08-14T17:41:43.870Z,4.45
2022-08-14T17:44:48.108Z,3.90
2022-08-14T17:47:51.415Z,3.95
2022-08-14T17:54:04.895Z,4.25
2022-08-14T17:57:14.028Z,5.12
2022-08-14T18:00:17.737Z,4.85
2022-08-14T18:03:49.995Z,4.25
2022-08-14T18:07:06.190Z,4.15
2022-08-14T18:10:52.363Z,4.70
2022-08-14T18:13:50.745Z,3.87
2022-08-14T18:16:55.855Z,3.90
2022-08-14T18:20:00.257Z,3.85
2022-08-14T18:23:06.178Z,5.40
2022-08-14T18:26:37.229Z,4.68
2022-08-14T18:29:39.692Z,4.25
2022-08-14T18:32:55.292Z,5.00
2022-08-14T18:39:29.677Z,4.20
2022-08-14T18:42:32.223Z,4.68
2022-08-14T18:45:41.234Z,4.60
2022-08-14T18:48:50.656Z,4.43
2022-08-14T18:52:13.144Z,4.22
2022-08-14T18:55:21.435Z,5.40
2022-08-14T18:58:27.615Z,4.30
2022-08-14T19:01:34.322Z,4.53
2022-08-14T19:04:37.374Z,4.68
2022-08-14T19:07:48.403Z,5.12
2022-08-14T19:11:03.927Z,5.43
2022-08-14T19:14:13.057Z,4.60
2022-08-14T19:18:14.488Z,5.07
2022-08-14T19:21:22.711Z,4.57
2022-08-14T19:24:44.246Z,5.22
2022-08-14T19:28:31.699Z,4.40
2022-08-14T19:31:42.162Z,4.50
2022-08-14T19:34:52.211Z,5.00
2022-08-14T19:37:56.931Z,5.78
2022-08-14T19:41:01.624Z,5.40
2022-08-14T19:44:19.500Z,5.65
2022-08-14T19:47:41.124Z,4.80
2022-08-14T19:50:46.801Z,4.55
2022-08-14T19:53:56.443Z,5.50
2022-08-14T19:56:58.840Z,4.60
2022-08-14T20:00:28.047Z,5.32
2022-08-14T20:03:59.896Z,4.57
2022-08-14T20:07:04.382Z,5.65
2022-08-14T20:11:12.618Z,6.00
2022-08-14T20:13:36.267Z,4.53
2022-08-14T20:16:44.629Z,4.10
2022-08-14T20:19:49.095Z,5.15
2022-08-14T20:22:55.605Z,5.55
2022-08-14T20:25:58.486Z,5.37
2022-08-14T20:29:05.347Z,5.35
2022-08-14T20:32:14.758Z,4.35
2022-08-14T20:35:26.827Z,4.82
2022-08-14T20:38:38.123Z,5.40
2022-08-14T20:41:48.988Z,5.10
2022-08-14T20:45:18.825Z,4.18
2022-08-14T20:48:52.673Z,4.62
2022-08-14T20:52:00.292Z,5.20
2022-08-14T20:55:29.129Z,5.87
2022-08-14T21:02:28.418Z,5.82
2022-08-14T21:05:33.826Z,5.37
2022-08-14T21:08:37.202Z,5.37
2022-08-14T21:11:42.612Z,5.18
2022-08-14T21:14:51.862Z,5.30
2022-08-14T21:17:56.262Z,6.10
2022-08-14T21:21:06.947Z,5.62
2022-08-14T21:24:38.684Z,5.95
2022-08-14T21:27:37.148Z,5.40
2022-08-14T21:30:46.999Z,4.60
2022-08-14T21:33:56.282Z,5.18
2022-08-14T21:37:06.405Z,5.40
2022-08-14T21:40:18.611Z,5.57
2022-08-14T21:43:35.833Z,4.80
2022-08-14T21:46:46.729Z,5.05
2022-08-14T21:49:48.894Z,5.20
2022-08-14T21:53:01.041Z,5.65
2022-08-14T21:56:12.033Z,4.70
2022-08-14T21:59:18.383Z,4.95
2022-08-14T22:02:32.783Z,5.30
2022-08-14T22:05:37.729Z,5.70
2022-08-14T22:08:40.583Z,5.30
2022-08-14T22:11:49.063Z,5.32
2022-08-14T22:15:00.399Z,5.07
2022-08-14T22:18:06.593Z,5.55
2022-08-14T22:21:16.707Z,4.57
2022-08-14T22:24:38.387Z,5.22
2022-08-14T22:27:56.311Z,5.15
2022-08-14T22:31:10.476Z,5.25
2022-08-14T22:34:15.019Z,5.03
2022-08-14T22:37:17.646Z,5.07
2022-08-14T22:40:53.710Z,4.22
2022-08-14T22:43:43.259Z,4.95
2022-08-14T22:46:46.292Z,4.37
2022-08-14T22:53:12.427Z,4.47
2022-08-14T22:56:20.290Z,4.97
2022-08-14T22:59:36.442Z,3.95
2022-08-14T23:02:40.869Z,4.05
2022-08-14T23:05:52.777Z,4.25
2022-08-14T23:08:58.700Z,4.07
2022-08-14T23:12:04.674Z,5.37
2022-08-14T23:15:29.957Z,4.50
2022-08-14T23:18:32.605Z,4.95
2022-08-14T23:21:34.993Z,5.03
2022-08-14T23:24:42.685Z,4.47
2022-08-14T23:28:03.216Z,5.15
2022-08-14T23:31:09.778Z,4.85
2022-08-14T23:34:20.744Z,4.55
2022-08-14T23:37:26.886Z,4.55
2022-08-14T23:40:30.802Z,3.65
2022-08-14T23:43:33.086Z,4.40
2022-08-14T23:46:35.968Z,4.47
2022-08-14T23:50:00.968Z,4.68
2022-08-14T23:53:27.935Z,4.32
2022-08-14T23:56:37.548Z,4.00
2022-08-14T23:59:54.211Z,4.40
